Time;durP1;ratioP1;P1;durP2;ratioP2;P2;SDS_P1;SDS_P2;PMS_P1;PMS_P2;Temp;Humidity;BMP_temperature;BMP_pressure;BME280_temperature;BME280_humidity;BME280_pressure;Samples;Min_cycle;Max_cycle;Signal;HPM_P1;HPM_P2
2022/02/03 00:00:47;;;;;;;38.35;16.83;;;7.60;99.90;;;;;;6079911;23;20088;-89
2022/02/03 00:03:24;;;;;;;50.65;21.88;;;7.60;99.90;;;;;;6074622;23;20088;-89
2022/02/03 00:06:06;;;;;;;39.85;16.95;;;7.60;99.90;;;;;;6074983;23;20279;-89
2022/02/03 00:08:58;;;;;;;21.05;7.32;;;7.70;99.90;;;;;;6081737;23;20673;-89
2022/02/03 00:25:03;;;;;;;51.00;17.88;;;7.70;99.90;;;;;;6121589;23;20024;-89
2022/02/03 00:30:19;;;;;;;40.78;16.42;;;7.70;99.90;;;;;;6100554;23;20013;-89
2022/02/03 00:35:46;;;;;;;51.47;20.17;;;7.80;99.90;;;;;;6105812;23;20013;-89
2022/02/03 00:48:59;;;;;;;44.47;18.50;;;7.80;99.90;;;;;;6104956;23;20495;-89
2022/02/03 00:51:25;;;;;;;42.22;18.63;;;7.80;99.90;;;;;;6074339;23;20021;-89
2022/02/03 00:53:51;;;;;;;48.90;21.33;;;7.80;99.90;;;;;;6074225;23;20430;-90
2022/02/03 00:56:20;;;;;;;40.95;18.52;;;7.80;99.90;;;;;;6071854;23;20005;-89
2022/02/03 00:58:51;;;;;;;38.75;16.10;;;7.80;99.90;;;;;;6073557;23;20018;-88
2022/02/03 01:01:18;;;;;;;39.55;16.50;;;7.80;99.90;;;;;;6072374;23;20061;-89
2022/02/03 01:03:44;;;;;;;38.00;16.90;;;7.80;99.90;;;;;;6097338;23;20024;-88
2022/02/03 01:06:10;;;;;;;44.10;18.77;;;7.90;99.90;;;;;;6073886;23;20002;-89
2022/02/03 01:08:36;;;;;;;29.25;11.25;;;7.90;99.90;;;;;;6073753;23;20036;-89
2022/02/03 01:11:13;;;;;;;42.13;18.23;;;7.90;99.90;;;;;;6074125;23;20259;-89
2022/02/03 01:19:22;;;;;;;35.45;15.50;;;7.90;99.90;;;;;;6090055;23;20024;-88
2022/02/03 01:43:19;;;;;;;26.58;11.93;;;7.90;99.90;;;;;;6097439;23;20023;-89
2022/02/03 01:43:38;;;;;;;33.80;15.43;;;7.90;99.90;;;;;;6104637;23;20100;-89
2022/02/03 01:46:14;;;;;;;30.77;15.35;;;7.90;99.90;;;;;;6077474;23;20084;-89
2022/02/03 01:53:50;;;;;;;42.35;20.38;;;8.00;99.90;;;;;;6107969;23;20021;-90
2022/02/03 01:56:17;;;;;;;20.52;10.88;;;8.00;99.90;;;;;;6074932;23;20388;-89
2022/02/03 01:58:46;;;;;;;26.98;12.70;;;8.00;99.90;;;;;;6075408;23;20018;-89
2022/02/03 02:01:31;;;;;;;33.65;12.82;;;8.00;99.90;;;;;;6117886;23;20012;-89
2022/02/03 02:04:06;;;;;;;27.48;12.80;;;8.00;99.90;;;;;;6074753;23;20473;-89
2022/02/03 02:06:47;;;;;;;12.73;6.93;;;8.10;99.90;;;;;;6099800;23;20021;-89
2022/02/03 02:09:25;;;;;;;23.55;10.55;;;7.90;99.90;;;;;;6123421;23;20474;-90
2022/02/03 02:36:56;;;;;;;28.60;12.32;;;8.00;99.90;;;;;;6104210;23;20028;-90
2022/02/03 02:39:31;;;;;;;29.77;14.70;;;8.10;99.90;;;;;;6100343;23;20013;-89
2022/02/03 02:42:31;;;;;;;41.45;18.05;;;8.00;99.90;;;;;;6122055;23;20040;-90
2022/02/03 02:45:09;;;;;;;36.65;18.73;;;8.00;99.90;;;;;;6107188;23;20013;-90
2022/02/03 02:47:44;;;;;;;25.95;12.98;;;8.00;99.90;;;;;;6124190;23;20010;-90
2022/02/03 02:50:28;;;;;;;33.60;16.45;;;8.00;99.90;;;;;;6122769;23;20020;-89
2022/02/03 02:53:18;;;;;;;39.60;20.15;;;8.00;99.90;;;;;;6065190;23;20018;-90
2022/02/03 02:56:06;;;;;;;33.92;16.58;;;8.10;99.90;;;;;;6081016;23;20834;-90
2022/02/03 03:37:14;;;;;;;50.20;21.23;;;8.10;99.90;;;;;;6105203;23;20020;-90
2022/02/03 03:39:45;;;;;;;39.28;16.88;;;8.00;99.90;;;;;;6073778;23;20013;-89
2022/02/03 03:42:14;;;;;;;38.50;17.38;;;8.00;99.90;;;;;;6075237;23;20083;-90
2022/02/03 03:44:40;;;;;;;52.05;22.20;;;8.00;99.90;;;;;;6076460;23;20021;-90
2022/02/03 03:47:10;;;;;;;27.75;14.32;;;8.00;99.90;;;;;;6099454;23;20031;-88
2022/02/03 03:49:46;;;;;;;33.97;15.95;;;8.00;99.90;;;;;;6075821;23;20014;-89
2022/02/03 03:52:25;;;;;;;40.88;15.98;;;8.00;99.90;;;;;;6073357;23;20431;-89
2022/02/03 04:36:22;;;;;;;30.92;13.15;;;7.90;99.90;;;;;;6102931;23;20016;-91
2022/02/03 04:41:26;;;;;;;32.95;17.15;;;7.90;99.90;;;;;;6102677;23;20041;-90
2022/02/03 05:05:38;;;;;;;25.63;11.18;;;7.90;99.90;;;;;;6100329;23;20014;-90
2022/02/03 05:09:06;;;;;;;18.23;10.48;;;7.80;99.90;;;;;;6124175;23;20013;-90
2022/02/03 05:11:41;;;;;;;;;;;7.80;99.90;;;;;;6109184;23;20033;-90
2022/02/03 05:17:48;;;;;;;18.65;8.77;;;7.80;99.90;;;;;;6130519;23;20020;-89
2022/02/03 05:41:58;;;;;;;22.48;11.73;;;7.70;99.90;;;;;;6147872;23;20009;-90
2022/02/03 06:14:14;;;;;;;9.80;5.07;;;7.50;99.90;;;;;;6102835;23;20206;-89
2022/02/03 06:17:02;;;;;;;9.25;5.95;;;7.50;99.90;;;;;;6077869;23;20553;-89
2022/02/03 06:27:25;;;;;;;9.43;5.80;;;7.40;99.90;;;;;;6089321;23;20084;-89
2022/02/03 06:27:43;;;;;;;11.00;7.33;;;7.40;99.90;;;;;;6125325;23;20020;-88
2022/02/03 06:30:12;;;;;;;8.70;5.00;;;7.40;99.90;;;;;;6074007;23;20229;-88
2022/02/03 06:32:43;;;;;;;15.63;8.40;;;7.40;99.90;;;;;;6075275;23;20053;-89
2022/02/03 06:35:10;;;;;;;10.90;5.18;;;7.40;99.90;;;;;;6074498;23;20037;-89
2022/02/03 06:37:36;;;;;;;8.02;5.50;;;7.40;99.90;;;;;;6074520;23;20053;-89
2022/02/03 06:40:07;;;;;;;10.25;5.75;;;7.40;99.90;;;;;;6074064;23;20006;-89
2022/02/03 06:42:33;;;;;;;9.85;6.18;;;7.40;99.90;;;;;;6075041;23;20009;-89
2022/02/03 06:45:38;;;;;;;11.20;4.68;;;7.40;99.90;;;;;;6060037;23;20032;-90
2022/02/03 06:50:24;;;;;;;7.47;4.10;;;7.30;99.90;;;;;;6085057;23;20014;-89
2022/02/03 06:53:11;;;;;;;16.05;7.60;;;7.40;99.90;;;;;;6097446;23;20014;-90
2022/02/03 06:58:31;;;;;;;12.00;5.40;;;7.30;99.90;;;;;;6101608;23;20020;-89
2022/02/03 07:01:06;;;;;;;12.98;6.43;;;7.30;99.90;;;;;;6073536;23;20014;-90
2022/02/03 07:03:37;;;;;;;8.48;4.15;;;7.30;99.90;;;;;;6075594;23;20009;-90
2022/02/03 07:06:02;;;;;;;13.63;7.38;;;7.30;99.90;;;;;;6074331;23;20017;-90
2022/02/03 07:08:31;;;;;;;14.13;7.13;;;7.40;99.90;;;;;;6071659;23;20017;-91
2022/02/03 07:10:57;;;;;;;11.88;6.72;;;7.40;99.90;;;;;;6074803;23;20087;-89
2022/02/03 07:13:24;;;;;;;18.00;9.60;;;7.40;99.90;;;;;;6070944;23;20061;-90
2022/02/03 07:15:49;;;;;;;18.10;10.10;;;7.40;99.90;;;;;;6098336;23;20024;-89
2022/02/03 07:18:17;;;;;;;13.52;9.38;;;7.40;99.90;;;;;;6076755;23;20414;-89
2022/02/03 07:20:45;;;;;;;16.63;8.18;;;7.40;99.90;;;;;;6071851;23;20410;-90
2022/02/03 07:23:10;;;;;;;20.40;9.68;;;7.30;99.90;;;;;;6072860;23;20009;-91
2022/02/03 07:25:36;;;;;;;15.02;8.00;;;7.40;99.90;;;;;;6073978;23;20079;-90
2022/02/03 07:28:03;;;;;;;14.20;9.55;;;7.40;99.90;;;;;;6074780;23;20018;-90
2022/02/03 07:30:29;;;;;;;17.63;10.75;;;7.40;99.90;;;;;;6074974;23;20006;-89
2022/02/03 07:32:57;;;;;;;16.95;8.90;;;7.40;99.90;;;;;;6076581;23;20463;-91
2022/02/03 07:35:22;;;;;;;17.73;9.25;;;7.30;99.90;;;;;;6076197;23;20025;-90
2022/02/03 07:37:49;;;;;;;18.02;9.30;;;7.40;99.90;;;;;;6077128;23;20084;-91
2022/02/03 07:40:15;;;;;;;17.25;11.00;;;7.40;99.90;;;;;;6075827;23;20009;-91
2022/02/03 07:42:44;;;;;;;16.80;9.88;;;7.40;99.90;;;;;;6072975;23;20009;-90
2022/02/03 07:45:10;;;;;;;18.27;10.65;;;7.40;99.90;;;;;;6074884;23;20025;-89
2022/02/03 07:47:45;;;;;;;15.65;8.98;;;7.40;99.90;;;;;;6072643;23;20144;-90
2022/02/03 07:50:10;;;;;;;14.27;8.48;;;7.40;99.90;;;;;;6073544;23;20519;-89
2022/02/03 07:52:36;;;;;;;17.33;10.82;;;7.40;99.90;;;;;;6073512;23;20006;-89
2022/02/03 07:55:01;;;;;;;17.77;11.23;;;7.40;99.90;;;;;;6070149;23;20362;-90
2022/02/03 07:57:27;;;;;;;19.15;9.75;;;7.40;99.90;;;;;;6073115;23;20021;-90
2022/02/03 07:59:55;;;;;;;18.90;9.90;;;7.40;99.90;;;;;;6074210;23;20502;-90
2022/02/03 08:02:20;;;;;;;12.60;7.40;;;7.40;99.90;;;;;;6073865;23;20013;-89
2022/02/03 08:04:48;;;;;;;19.23;11.85;;;7.40;99.90;;;;;;6072985;23;20022;-89
2022/02/03 08:07:16;;;;;;;17.77;7.65;;;7.40;99.90;;;;;;6073494;23;20021;-90
2022/02/03 08:12:12;;;;;;;15.50;9.50;;;7.30;99.90;;;;;;6096421;23;20017;-88
2022/02/03 08:14:43;;;;;;;15.23;7.55;;;7.30;99.90;;;;;;6058933;23;20084;-89
2022/02/03 08:17:14;;;;;;;20.33;10.80;;;7.40;99.90;;;;;;6071571;23;20039;-90
2022/02/03 08:19:49;;;;;;;25.25;14.07;;;7.40;99.90;;;;;;6075008;23;20402;-89
2022/02/03 08:22:41;;;;;;;20.88;10.50;;;7.40;99.90;;;;;;6075746;23;20058;-90
2022/02/03 08:25:09;;;;;;;23.58;12.90;;;7.40;99.90;;;;;;6089877;23;20254;-89
2022/02/03 08:27:52;;;;;;;18.30;11.07;;;7.40;99.90;;;;;;6075977;23;20017;-89
2022/02/03 08:32:49;;;;;;;17.90;10.77;;;7.40;99.90;;;;;;6098325;23;20063;-89
2022/02/03 08:35:21;;;;;;;20.65;12.10;;;7.40;99.90;;;;;;6097968;23;20009;-89
2022/02/03 08:40:25;;;;;;;19.90;11.05;;;7.40;99.90;;;;;;6096562;23;20006;-89
2022/02/03 08:42:50;;;;;;;14.90;9.32;;;7.40;99.90;;;;;;6075830;23;20545;-89
2022/02/03 08:45:16;;;;;;;18.10;11.40;;;7.40;99.90;;;;;;6072458;23;20052;-90
2022/02/03 08:47:42;;;;;;;23.60;12.38;;;7.40;99.90;;;;;;6073482;23;20020;-90
2022/02/03 08:50:08;;;;;;;17.23;10.05;;;7.40;99.90;;;;;;6073024;23;20010;-90
2022/02/03 08:52:48;;;;;;;14.20;6.88;;;7.40;99.90;;;;;;6072292;23;20010;-89
2022/02/03 08:58:16;;;;;;;18.15;9.73;;;7.40;99.90;;;;;;6098629;23;20454;-90
2022/02/03 09:32:32;;;;;;;14.23;7.63;;;7.40;99.90;;;;;;6124962;23;20020;-89
2022/02/03 09:41:11;;;;;;;14.88;8.82;;;7.40;99.90;;;;;;6095312;23;20021;-87
2022/02/03 09:54:44;;;;;;;15.80;9.30;;;7.30;99.90;;;;;;6099347;23;20101;-86
2022/02/03 09:57:30;;;;;;;20.38;8.70;;;7.40;99.90;;;;;;6099313;23;20388;-88
2022/02/03 10:00:46;;;;;;;4.97;3.33;;;7.40;99.90;;;;;;6082525;23;20497;-89
2022/02/03 10:03:19;;;;;;;17.17;9.95;;;7.30;99.90;;;;;;6074454;23;20010;-89
2022/02/03 10:05:59;;;;;;;15.50;7.70;;;7.30;99.90;;;;;;6099816;23;20172;-89
2022/02/03 10:08:28;;;;;;;22.60;10.40;;;7.40;99.90;;;;;;6060549;23;20037;-90
2022/02/03 10:11:15;;;;;;;14.07;7.15;;;7.50;99.90;;;;;;6072676;23;20040;-87
2022/02/03 10:14:03;;;;;;;21.00;10.25;;;7.40;99.90;;;;;;6075786;23;20016;-88
2022/02/03 10:16:33;;;;;;;17.00;8.88;;;7.40;99.90;;;;;;6074279;23;20018;-88
2022/02/03 10:19:09;;;;;;;14.25;6.72;;;7.50;99.90;;;;;;6076340;23;20351;-87
2022/02/03 10:21:34;;;;;;;22.17;10.82;;;7.40;99.90;;;;;;6099673;23;20025;-90
2022/02/03 10:24:04;;;;;;;19.98;11.65;;;7.40;99.90;;;;;;6099910;23;20016;-89
2022/02/03 10:26:30;;;;;;;17.33;7.15;;;7.50;99.90;;;;;;6100165;23;20009;-89
2022/02/03 10:28:58;;;;;;;21.42;11.95;;;7.50;99.90;;;;;;6076551;23;20017;-88
2022/02/03 10:31:33;;;;;;;20.52;11.13;;;7.50;99.90;;;;;;6098255;23;20010;-89
2022/02/03 10:34:06;;;;;;;13.73;8.15;;;7.60;99.90;;;;;;6077364;23;20009;-89
2022/02/03 10:37:07;;;;;;;13.48;6.10;;;7.50;99.90;;;;;;6058212;23;20054;-88
2022/02/03 10:40:37;;;;;;;18.98;10.43;;;7.50;99.90;;;;;;6090738;23;20006;-90
2022/02/03 11:04:16;;;;;;;9.20;5.13;;;7.50;99.90;;;;;;6093297;23;20097;-88
2022/02/03 11:06:58;;;;;;;15.55;8.82;;;7.60;99.90;;;;;;6043147;23;20010;-88
2022/02/03 11:09:36;;;;;;;16.42;7.78;;;7.60;99.90;;;;;;6079381;23;20002;-89
2022/02/03 11:12:04;;;;;;;13.18;5.60;;;7.60;99.90;;;;;;6078453;23;20010;-86
2022/02/03 11:17:25;;;;;;;16.08;11.13;;;7.60;99.90;;;;;;6093011;23;20010;-89
2022/02/03 11:19:52;;;;;;;13.88;8.65;;;7.60;99.90;;;;;;6073382;23;20040;-87
2022/02/03 11:22:26;;;;;;;11.13;6.47;;;7.60;99.90;;;;;;6072667;23;20002;-89
2022/02/03 11:25:06;;;;;;;13.80;7.68;;;7.60;99.90;;;;;;6060193;23;20021;-89
2022/02/03 11:28:01;;;;;;;14.50;7.32;;;7.60;99.90;;;;;;6100868;23;20018;-88
2022/02/03 11:49:42;;;;;;;8.70;4.57;;;7.40;99.90;;;;;;6103174;23;20010;-89
2022/02/03 11:52:51;;;;;;;9.40;4.78;;;7.40;99.90;;;;;;6113185;23;20350;-88
2022/02/03 12:16:25;;;;;;;6.35;3.97;;;7.30;99.90;;;;;;6117303;23;20017;-87
2022/02/03 12:21:53;;;;;;;11.30;5.75;;;7.20;99.90;;;;;;6099923;23;20013;-88
2022/02/03 12:24:48;;;;;;;9.68;5.55;;;7.20;99.90;;;;;;6073322;23;20074;-88
2022/02/03 12:27:48;;;;;;;8.52;4.82;;;7.20;99.90;;;;;;6078918;23;20481;-89
2022/02/03 12:30:32;;;;;;;14.48;6.32;;;7.20;99.90;;;;;;6083087;23;20020;-88
2022/02/03 12:38:36;;;;;;;12.05;6.40;;;7.10;99.90;;;;;;6099284;23;20016;-89
2022/02/03 12:41:11;;;;;;;8.25;5.30;;;7.10;99.90;;;;;;6078440;23;20006;-88
2022/02/03 12:43:46;;;;;;;5.30;3.35;;;7.00;99.90;;;;;;6062327;23;20005;-88
2022/02/03 12:46:13;;;;;;;9.73;4.03;;;7.10;99.90;;;;;;6096904;23;20018;-88
2022/02/03 12:48:42;;;;;;;9.35;5.63;;;7.10;99.90;;;;;;6074943;23;20322;-87
2022/02/03 12:51:07;;;;;;;8.75;5.00;;;7.20;99.90;;;;;;6073396;23;20005;-87
2022/02/03 12:53:35;;;;;;;7.22;3.90;;;7.00;99.90;;;;;;6098530;23;20016;-88
2022/02/03 12:56:05;;;;;;;12.80;6.57;;;7.00;99.90;;;;;;6073853;23;20016;-87
2022/02/03 12:58:42;;;;;;;10.32;6.50;;;7.00;99.90;;;;;;6074567;23;20018;-88
2022/02/03 13:01:12;;;;;;;9.95;5.93;;;7.00;99.90;;;;;;6074290;23;20521;-87
2022/02/03 13:03:43;;;;;;;7.63;5.13;;;7.00;99.90;;;;;;6075334;23;20013;-87
2022/02/03 13:06:21;;;;;;;4.53;2.28;;;7.00;99.90;;;;;;6074263;23;20118;-88
2022/02/03 13:08:55;;;;;;;11.45;4.60;;;7.00;99.90;;;;;;6100390;23;20032;-88
2022/02/03 13:16:25;;;;;;;6.22;3.70;;;7.00;99.90;;;;;;6097539;23;20033;-87
2022/02/03 13:19:20;;;;;;;7.25;4.60;;;7.00;99.90;;;;;;6074187;23;20014;-88
2022/02/03 13:22:03;;;;;;;7.13;4.57;;;7.00;99.90;;;;;;6080640;23;20018;-88
2022/02/03 13:27:25;;;;;;;7.95;4.72;;;7.00;99.90;;;;;;6088136;23;20020;-88
2022/02/03 13:30:00;;;;;;;5.43;3.78;;;7.00;99.90;;;;;;6073227;23;20021;-88
2022/02/03 13:32:32;;;;;;;7.35;4.05;;;6.90;99.90;;;;;;6075411;23;20174;-88
2022/02/03 13:35:05;;;;;;;8.95;4.07;;;6.90;99.90;;;;;;6061765;23;20018;-89
2022/02/03 13:37:41;;;;;;;9.23;5.75;;;7.00;99.90;;;;;;6121864;23;20097;-88
2022/02/03 13:40:14;;;;;;;10.68;5.53;;;6.90;99.90;;;;;;6080640;23;20339;-88
2022/02/03 13:42:46;;;;;;;10.52;5.50;;;7.00;99.90;;;;;;6075863;23;20013;-87
2022/02/03 13:45:13;;;;;;;12.23;5.65;;;7.00;99.90;;;;;;6075479;23;20045;-87
2022/02/03 13:47:38;;;;;;;8.48;3.90;;;6.90;99.90;;;;;;6097941;23;20401;-87
2022/02/03 13:50:11;;;;;;;8.73;4.75;;;6.90;99.90;;;;;;6074417;23;20013;-87
2022/02/03 13:52:44;;;;;;;8.27;3.85;;;7.00;99.90;;;;;;6075306;23;20334;-88
2022/02/03 14:13:01;;;;;;;9.93;5.65;;;7.00;99.90;;;;;;6106639;23;20028;-88
2022/02/03 14:17:49;;;;;;;12.27;5.72;;;7.10;99.90;;;;;;6099479;23;20064;-87
2022/02/03 14:23:21;;;;;;;8.85;5.68;;;7.10;99.90;;;;;;6092130;23;20016;-88
2022/02/03 14:28:26;;;;;;;6.70;3.22;;;7.20;99.90;;;;;;6103630;23;20294;-87
2022/02/03 14:30:55;;;;;;;9.32;5.07;;;7.10;99.90;;;;;;6073119;23;20245;-87
2022/02/03 14:33:31;;;;;;;6.38;4.22;;;7.10;99.90;;;;;;6075123;23;20020;-86
2022/02/03 14:36:18;;;;;;;6.53;4.28;;;7.20;99.90;;;;;;6078523;23;20010;-87
2022/02/03 14:39:00;;;;;;;9.98;4.80;;;7.20;99.90;;;;;;6083185;23;20370;-88
2022/02/03 14:41:34;;;;;;;9.68;6.25;;;7.10;99.90;;;;;;6079739;23;20071;-87
2022/02/03 14:44:01;;;;;;;4.97;3.22;;;7.20;99.90;;;;;;6077005;23;20041;-87
2022/02/03 14:46:26;;;;;;;9.90;6.05;;;7.20;99.90;;;;;;6098425;23;20229;-87
2022/02/03 14:48:52;;;;;;;9.18;6.07;;;7.30;99.90;;;;;;6074869;23;20501;-87
2022/02/03 14:51:23;;;;;;;5.20;1.27;;;7.20;99.90;;;;;;6060205;23;20076;-87
2022/02/03 14:58:00;;;;;;;10.15;5.80;;;7.20;99.90;;;;;;6098343;23;20394;-88
2022/02/03 14:59:24;;;;;;;8.65;3.25;;;7.30;99.90;;;;;;6105131;23;20017;-89
2022/02/03 15:01:50;;;;;;;8.52;4.03;;;7.20;99.90;;;;;;6073963;23;20021;-88
2022/02/03 15:04:24;;;;;;;7.93;4.03;;;7.20;99.90;;;;;;6074103;23;20013;-88
2022/02/03 15:06:57;;;;;;;12.23;5.55;;;7.20;99.90;;;;;;6077450;23;20033;-88
2022/02/03 15:12:02;;;;;;;9.55;5.70;;;7.20;99.90;;;;;;6101397;23;20477;-88
2022/02/03 15:14:29;;;;;;;6.78;4.75;;;7.20;99.90;;;;;;6073190;23;20200;-88
2022/02/03 15:16:54;;;;;;;6.47;3.58;;;7.20;99.90;;;;;;6079828;23;20018;-88
2022/02/03 15:19:20;;;;;;;7.25;3.78;;;7.20;99.90;;;;;;6073295;23;20013;-88
2022/02/03 15:21:46;;;;;;;5.63;3.50;;;7.20;99.90;;;;;;6072746;23;20122;-88
2022/02/03 15:24:11;;;;;;;9.93;6.28;;;7.10;99.90;;;;;;6037536;23;20010;-88
2022/02/03 15:26:40;;;;;;;3.42;2.42;;;7.10;99.90;;;;;;6073237;23;20085;-87
2022/02/03 15:29:06;;;;;;;7.70;3.33;;;7.30;99.90;;;;;;6101869;23;20439;-88
2022/02/03 15:31:33;;;;;;;10.20;4.75;;;7.20;99.90;;;;;;6070528;23;20010;-88
2022/02/03 15:34:08;;;;;;;8.23;4.35;;;7.20;99.90;;;;;;6097045;23;20060;-88
2022/02/03 15:36:35;;;;;;;8.82;5.45;;;7.10;99.90;;;;;;6074204;23;20118;-88
2022/02/03 15:39:07;;;;;;;8.75;4.30;;;7.10;99.90;;;;;;6073001;23;20009;-88
2022/02/03 15:41:32;;;;;;;9.57;6.10;;;7.10;99.90;;;;;;6073890;23;20441;-89
2022/02/03 15:44:00;;;;;;;9.52;5.45;;;7.10;99.90;;;;;;6095795;23;20149;-88
2022/02/03 15:46:27;;;;;;;5.10;3.03;;;7.10;99.90;;;;;;6073929;23;20016;-88
2022/02/03 16:13:16;;;;;;;6.45;2.95;;;7.00;99.90;;;;;;6103633;23;20022;-88
2022/02/03 16:18:20;;;;;;;10.98;4.65;;;6.90;99.90;;;;;;6106996;23;20024;-89
2022/02/03 16:20:54;;;;;;;10.02;4.95;;;6.90;99.90;;;;;;6062699;23;20006;-88
2022/02/03 16:50:49;;;;;;;13.38;6.07;;;6.80;99.90;;;;;;6085878;23;20930;-88
2022/02/03 16:53:15;;;;;;;11.50;5.78;;;6.70;99.90;;;;;;6123489;23;20021;-88
2022/02/03 16:55:43;;;;;;;8.35;4.75;;;6.60;99.90;;;;;;6075220;23;20017;-87
2022/02/03 16:58:10;;;;;;;11.77;6.18;;;6.60;99.90;;;;;;6078621;23;20490;-88
2022/02/03 17:00:36;;;;;;;12.95;8.48;;;6.60;99.90;;;;;;6075060;23;20013;-89
2022/02/03 17:03:02;;;;;;;9.82;5.00;;;6.60;99.90;;;;;;6075025;23;20028;-88
2022/02/03 17:05:28;;;;;;;3.60;2.33;;;6.60;99.90;;;;;;6073123;23;20013;-88
2022/02/03 17:07:53;;;;;;;10.05;4.50;;;6.60;99.90;;;;;;6075189;23;20013;-88
2022/02/03 17:10:19;;;;;;;8.90;4.47;;;6.60;99.90;;;;;;6074283;23;20131;-88
2022/02/03 17:12:44;;;;;;;4.80;2.50;;;6.60;99.90;;;;;;6077906;23;20025;-89
2022/02/03 17:15:10;;;;;;;14.93;7.15;;;6.50;99.90;;;;;;6069752;23;20014;-87
2022/02/03 17:17:36;;;;;;;11.45;6.65;;;6.60;99.90;;;;;;6074289;23;20024;-88
2022/02/03 17:20:12;;;;;;;12.07;6.18;;;6.60;99.90;;;;;;6069104;23;20009;-88
2022/02/03 17:22:42;;;;;;;;;;;6.60;99.90;;;;;;6062208;23;20040;-88
2022/02/03 17:27:47;;;;;;;14.82;7.65;;;6.60;99.90;;;;;;6098573;23;20044;-88
2022/02/03 17:30:19;;;;;;;14.77;6.75;;;6.60;99.90;;;;;;6072057;23;20021;-88
2022/02/03 18:28:50;;;;;;;11.25;5.18;;;6.40;99.90;;;;;;6110041;23;20016;-88
2022/02/03 18:30:43;;;;;;;17.77;10.23;;;6.40;99.90;;;;;;6090134;23;20423;-87
2022/02/03 18:52:44;;;;;;;15.50;8.10;;;6.30;99.90;;;;;;6097826;23;20141;-89
2022/02/03 18:58:27;;;;;;;10.80;4.35;;;6.30;99.90;;;;;;6089994;23;20244;-89
2022/02/03 20:04:34;;;;;;;18.58;9.75;;;6.20;99.90;;;;;;6100344;23;20064;-89
2022/02/03 20:12:03;;;;;;;21.13;11.55;;;6.10;99.90;;;;;;6080952;23;20097;-88
2022/02/03 20:14:31;;;;;;;31.95;15.63;;;6.20;99.90;;;;;;6068378;23;20037;-89
2022/02/03 20:16:56;;;;;;;23.55;12.80;;;6.20;99.90;;;;;;6069018;23;20010;-89
2022/02/03 20:19:25;;;;;;;25.48;13.52;;;6.10;99.90;;;;;;6055405;23;20066;-89
2022/02/03 20:22:04;;;;;;;33.65;17.83;;;6.10;99.90;;;;;;6079462;23;20382;-89
2022/02/03 20:24:32;;;;;;;34.78;17.98;;;6.10;99.90;;;;;;6094385;23;20100;-90
2022/02/03 20:26:57;;;;;;;25.92;13.73;;;6.10;99.90;;;;;;6066454;23;20013;-89
2022/02/03 20:29:26;;;;;;;27.70;13.27;;;6.00;99.90;;;;;;6054320;23;20016;-90
2022/02/03 20:31:52;;;;;;;21.73;11.30;;;6.10;99.90;;;;;;6093733;23;20035;-89
2022/02/03 20:34:21;;;;;;;25.00;13.52;;;6.10;99.90;;;;;;6053707;23;20438;-87
2022/02/03 20:36:52;;;;;;;34.88;17.42;;;6.10;99.90;;;;;;6065815;23;20010;-88
2022/02/03 20:39:18;;;;;;;32.38;14.65;;;6.20;99.90;;;;;;6070953;23;20342;-89
2022/02/03 20:41:44;;;;;;;15.93;7.55;;;6.20;99.90;;;;;;6072055;23;20025;-88
2022/02/03 20:44:09;;;;;;;21.17;11.30;;;6.10;99.90;;;;;;6052428;23;20020;-88
2022/02/03 20:46:36;;;;;;;21.02;12.13;;;6.10;99.90;;;;;;6055809;23;20469;-88
2022/02/03 20:49:02;;;;;;;23.48;10.98;;;6.10;99.90;;;;;;6060728;23;20066;-88
2022/02/03 20:51:29;;;;;;;16.15;7.60;;;6.10;99.90;;;;;;6044630;23;20386;-89
2022/02/03 20:53:55;;;;;;;25.75;12.25;;;6.10;99.90;;;;;;6098037;23;20071;-88
2022/02/03 20:56:21;;;;;;;29.45;15.65;;;6.10;99.90;;;;;;6097067;23;20092;-88
2022/02/03 20:58:49;;;;;;;23.33;11.18;;;6.10;99.90;;;;;;6056013;23;20024;-88
2022/02/03 21:01:30;;;;;;;14.75;8.02;;;6.10;99.90;;;;;;6071784;23;20068;-88
2022/02/03 21:04:03;;;;;;;27.17;15.45;;;6.20;99.90;;;;;;6078142;23;20116;-88
2022/02/03 21:06:33;;;;;;;19.48;9.88;;;6.10;99.90;;;;;;6059650;23;20009;-88
2022/02/03 21:09:00;;;;;;;25.33;11.25;;;6.10;99.90;;;;;;6096324;23;20468;-89
2022/02/03 21:11:25;;;;;;;22.73;11.77;;;6.10;99.90;;;;;;6095997;23;20026;-88
2022/02/03 21:13:54;;;;;;;29.27;15.60;;;6.10;99.90;;;;;;6069530;23;20020;-89
2022/02/03 21:16:24;;;;;;;20.27;9.68;;;6.10;99.90;;;;;;6073420;23;20339;-88
2022/02/03 21:18:50;;;;;;;17.35;9.07;;;6.10;99.90;;;;;;6073568;23;20386;-89
2022/02/03 21:21:16;;;;;;;36.13;20.40;;;6.20;99.90;;;;;;6058869;23;20450;-89
2022/02/03 21:23:42;;;;;;;26.77;13.32;;;6.10;99.90;;;;;;6096535;23;20020;-89
2022/02/03 21:26:16;;;;;;;35.97;17.40;;;6.10;99.90;;;;;;6071163;23;20455;-88
2022/02/03 21:28:46;;;;;;;19.58;8.65;;;6.10;99.90;;;;;;6073810;23;20009;-89
2022/02/03 21:31:12;;;;;;;14.52;9.15;;;6.10;99.90;;;;;;6073027;23;20016;-89
2022/02/03 21:33:49;;;;;;;16.10;8.30;;;6.20;99.90;;;;;;6071061;23;20203;-89
2022/02/03 21:36:20;;;;;;;19.13;11.63;;;6.10;99.90;;;;;;6075634;23;20020;-88
2022/02/03 21:38:45;;;;;;;22.80;11.25;;;6.10;99.90;;;;;;6073467;23;20077;-87
2022/02/03 21:41:12;;;;;;;28.60;15.88;;;6.10;99.90;;;;;;6044146;23;20095;-89
2022/02/03 21:43:38;;;;;;;29.35;15.13;;;6.10;99.90;;;;;;6046605;23;20016;-88
2022/02/03 21:46:03;;;;;;;27.20;12.98;;;6.20;99.90;;;;;;6080249;23;20018;-89
2022/02/03 21:48:41;;;;;;;25.55;12.38;;;6.10;99.90;;;;;;6081609;23;20053;-88
2022/02/03 21:51:08;;;;;;;30.98;16.17;;;6.10;99.90;;;;;;6071646;23;20076;-88
2022/02/03 21:53:34;;;;;;;33.40;18.83;;;6.20;99.90;;;;;;6072016;23;20405;-88
2022/02/03 21:56:03;;;;;;;28.60;14.63;;;6.10;99.90;;;;;;6096328;23;20021;-90
2022/02/03 21:58:29;;;;;;;35.08;19.10;;;6.20;99.90;;;;;;6070539;23;20332;-89
2022/02/03 22:00:57;;;;;;;25.48;13.75;;;6.20;99.90;;;;;;6059475;23;20092;-88
2022/02/03 22:03:31;;;;;;;20.73;9.63;;;6.20;99.90;;;;;;6073444;23;20016;-88
2022/02/03 22:05:57;;;;;;;24.70;11.05;;;6.20;99.90;;;;;;6075023;23;20018;-88
2022/02/03 22:08:23;;;;;;;22.10;12.13;;;6.10;99.90;;;;;;6071652;23;20010;-88
2022/02/03 22:10:57;;;;;;;23.00;13.93;;;6.20;99.90;;;;;;6071657;23;20157;-88
2022/02/03 22:13:32;;;;;;;21.73;9.57;;;6.10;99.90;;;;;;6049916;23;20020;-88
2022/02/03 22:16:08;;;;;;;30.48;16.30;;;6.10;99.90;;;;;;6081674;23;20020;-88
2022/02/03 22:18:34;;;;;;;27.65;15.60;;;6.20;99.90;;;;;;6076111;23;20013;-89
2022/02/03 22:21:09;;;;;;;30.73;18.05;;;6.20;99.90;;;;;;6097350;23;20017;-89
2022/02/03 22:42:34;;;;;;;28.38;13.65;;;6.20;99.90;;;;;;6095994;23;20033;-88
2022/02/03 22:50:20;;;;;;;21.05;11.95;;;6.20;99.90;;;;;;6098603;23;20433;-87
2022/02/03 22:52:46;;;;;;;41.00;20.60;;;6.20;99.90;;;;;;6044339;23;20096;-88
2022/02/03 22:55:12;;;;;;;14.95;8.07;;;6.30;99.90;;;;;;6097181;23;20014;-87
2022/02/03 22:57:47;;;;;;;28.98;16.33;;;6.20;99.90;;;;;;6060787;23;20013;-88
2022/02/03 23:00:20;;;;;;;38.78;18.25;;;6.20;99.90;;;;;;6065049;23;20080;-88
2022/02/03 23:02:46;;;;;;;34.58;18.60;;;6.20;99.90;;;;;;6075848;23;20013;-88
2022/02/03 23:05:17;;;;;;;34.10;16.02;;;6.20;99.90;;;;;;6073169;23;20013;-89
2022/02/03 23:10:25;;;;;;;35.33;16.58;;;6.20;99.90;;;;;;6086455;23;20029;-88
2022/02/03 23:18:03;;;;;;;31.25;17.80;;;6.20;99.90;;;;;;6101080;23;20051;-88
2022/02/03 23:20:43;;;;;;;34.38;18.85;;;6.20;99.90;;;;;;6073712;23;20017;-89
2022/02/03 23:23:09;;;;;;;29.73;15.10;;;6.20;99.90;;;;;;6066287;23;20017;-88
2022/02/03 23:25:45;;;;;;;23.58;11.35;;;6.30;99.90;;;;;;6072623;23;20048;-88
2022/02/03 23:28:24;;;;;;;23.15;11.98;;;6.20;99.90;;;;;;6076077;23;20009;-89
2022/02/03 23:30:51;;;;;;;15.80;8.23;;;6.20;99.90;;;;;;6099467;23;20033;-89
2022/02/03 23:33:17;;;;;;;33.88;18.10;;;6.10;99.90;;;;;;6074205;23;20013;-88
2022/02/03 23:35:43;;;;;;;38.50;18.67;;;6.20;99.90;;;;;;6058100;23;20100;-89
2022/02/03 23:38:26;;;;;;;35.35;15.60;;;6.20;99.90;;;;;;6096879;23;20009;-88
